createdAt,value
2023-03-05T00:08:59.802Z,86.75
2023-03-05T00:19:04.260Z,87.20
2023-03-05T00:29:08.667Z,87.61
2023-03-05T00:39:13.773Z,87.96
2023-03-05T00:49:16.804Z,88.57
2023-03-05T00:59:21.350Z,88.54
2023-03-05T01:09:25.250Z,89.16
2023-03-05T01:19:30.054Z,90.24
2023-03-05T01:29:33.005Z,90.45
2023-03-05T01:39:37.441Z,90.78
2023-03-05T01:49:42.546Z,92.67
2023-03-05T01:59:50.177Z,93.22
2023-03-05T02:09:53.249Z,92.96
2023-03-05T02:20:06.216Z,93.24
2023-03-05T02:30:12.578Z,94.38
2023-03-05T02:40:16.411Z,93.97
2023-03-05T02:50:21.141Z,94.14
2023-03-05T03:00:24.524Z,95.98
2023-03-05T03:10:29.053Z,96.14
2023-03-05T03:20:32.776Z,95.76
2023-03-05T03:30:37.139Z,96.71
2023-03-05T03:40:40.128Z,98.11
2023-03-05T03:50:45.099Z,97.98
2023-03-05T04:00:47.977Z,97.17
2023-03-05T04:10:52.335Z,95.84
2023-03-05T04:20:55.335Z,96.67
2023-03-05T04:30:59.747Z,97.64
2023-03-05T04:41:02.713Z,97.55
2023-03-05T04:51:07.245Z,97.21
2023-03-05T05:01:10.665Z,97.47
2023-03-05T05:11:16.060Z,97.62
2023-03-05T05:21:20.416Z,97.91
2023-03-05T05:31:24.927Z,98.64
2023-03-05T05:41:27.922Z,100.00
2023-03-05T05:51:32.312Z,100.00
2023-03-05T06:01:36.454Z,100.00
2023-03-05T06:11:40.846Z,100.00
2023-03-05T06:21:44.205Z,100.00
2023-03-05T06:31:48.514Z,100.00
2023-03-05T06:41:52.877Z,100.00
2023-03-05T06:51:57.230Z,100.00
2023-03-05T07:02:00.242Z,100.00
2023-03-05T07:12:04.875Z,100.00
2023-03-05T07:22:08.218Z,100.00
2023-03-05T07:32:12.571Z,100.00
2023-03-05T07:42:15.595Z,100.00
2023-03-05T07:52:33.383Z,100.00
2023-03-05T08:02:36.469Z,99.11
2023-03-05T08:12:40.877Z,99.69
2023-03-05T08:22:43.884Z,97.97
2023-03-05T08:32:50.467Z,98.51
2023-03-05T08:42:53.431Z,95.22
2023-03-05T08:52:58.023Z,92.60
2023-03-05T09:03:01.092Z,92.57
2023-03-05T09:13:05.591Z,91.65
2023-03-05T09:23:08.570Z,90.64
2023-03-05T09:33:15.858Z,88.26
2023-03-05T09:43:31.509Z,85.28
2023-03-05T09:53:45.262Z,83.39
2023-03-05T10:03:58.046Z,83.46
2023-03-05T10:14:03.609Z,81.37
2023-03-05T10:24:18.079Z,81.93
2023-03-05T10:34:40.982Z,79.74
2023-03-05T10:44:47.871Z,92.20
2023-03-05T10:54:52.254Z,100.00
2023-03-05T11:04:55.780Z,100.00
2023-03-05T11:15:22.723Z,99.32
2023-03-05T11:25:26.613Z,99.94
2023-03-05T11:35:36.099Z,95.41
2023-03-05T11:45:40.157Z,97.01
2023-03-05T11:55:46.787Z,88.23
2023-03-05T12:05:53.415Z,91.22
2023-03-05T12:16:10.144Z,91.06
2023-03-05T12:26:13.217Z,87.45
2023-03-05T12:36:37.891Z,86.02
2023-03-05T12:46:43.472Z,85.54
2023-03-05T12:56:48.501Z,85.82
2023-03-05T13:07:01.059Z,84.31
2023-03-05T13:17:30.247Z,79.42
2023-03-05T13:27:41.569Z,81.32
2023-03-05T13:37:46.500Z,76.71
2023-03-05T13:47:56.243Z,76.07
2023-03-05T13:58:04.873Z,78.25
2023-03-05T14:08:08.706Z,76.42
2023-03-05T14:18:21.644Z,76.22
2023-03-05T14:28:29.272Z,75.70
2023-03-05T14:38:35.703Z,74.18
2023-03-05T14:48:40.814Z,76.43
2023-03-05T14:58:47.440Z,76.68
2023-03-05T15:08:59.994Z,77.77
2023-03-05T15:19:08.194Z,78.72
2023-03-05T15:29:14.512Z,80.17
2023-03-05T15:39:27.473Z,81.27
2023-03-05T15:49:35.392Z,81.13
2023-03-05T15:59:40.638Z,82.94
2023-03-05T16:09:52.402Z,83.27
2023-03-05T16:19:57.713Z,84.70
2023-03-05T16:30:00.894Z,85.79
2023-03-05T16:40:06.137Z,88.08
2023-03-05T16:50:10.842Z,89.90
2023-03-05T17:00:18.764Z,92.94
2023-03-05T17:10:21.851Z,96.40
2023-03-05T17:20:26.220Z,95.66
2023-03-05T17:30:31.369Z,94.10
2023-03-05T17:40:38.752Z,94.52
2023-03-05T17:50:42.030Z,96.30
2023-03-05T18:00:46.878Z,97.20
2023-03-05T18:10:50.102Z,96.63
2023-03-05T18:20:54.570Z,97.99
2023-03-05T18:30:57.616Z,99.75
2023-03-05T18:41:03.984Z,100.00
2023-03-05T18:51:15.157Z,100.00
2023-03-05T19:01:20.399Z,100.00
2023-03-05T19:11:24.207Z,100.00
2023-03-05T19:21:30.374Z,100.00
2023-03-05T19:31:33.351Z,100.00
2023-03-05T19:41:37.769Z,100.00
2023-03-05T19:51:42.316Z,100.00
2023-03-05T20:01:47.233Z,100.00
2023-03-05T20:11:51.203Z,100.00
2023-03-05T20:21:55.584Z,100.00
2023-03-05T20:31:58.755Z,100.00
2023-03-05T20:42:03.396Z,100.00
2023-03-05T20:52:06.574Z,100.00
2023-03-05T21:02:11.820Z,100.00
2023-03-05T21:12:14.938Z,100.00
2023-03-05T21:22:19.303Z,100.00
2023-03-05T21:32:22.308Z,100.00
2023-03-05T21:42:26.656Z,100.00
2023-03-05T21:52:29.681Z,100.00
2023-03-05T22:02:34.031Z,100.00
2023-03-05T22:12:51.823Z,100.00
2023-03-05T22:23:25.917Z,100.00
2023-03-05T22:33:29.160Z,100.00
2023-03-05T22:43:33.498Z,100.00
2023-03-05T22:53:36.778Z,100.00
2023-03-05T23:03:41.849Z,100.00
2023-03-05T23:13:47.991Z,100.00
2023-03-05T23:23:53.154Z,100.00
2023-03-05T23:33:56.116Z,100.00
2023-03-05T23:44:00.438Z,100.00
2023-03-05T23:54:03.388Z,100.00
